Ocean Beaut — WDD7485 — position and weather

sailwx.info

Track history (hours):
 
Tides and Currents Weather Stations Pressure Air Temp Water Temp Dewpoint Dewpoint Depression Visibility Wind Speed Wind Dir Waves Ship Positions

Ocean Beaut

Owner: John Moreland Fishing Inc., Astoria, OR. More information available from US FCC via Universal Licensing System.

Last reported at 2015-Jan-30 04:23 UTC. Time now 2015-Feb-02 01:45 UTC.
Position N 46°15' W 123°60'.

Length 20 m.

Type: Fishing. MMSI: 367187080.

Date/timePositionNaut miles runAvg speedWind from/ knotsBaromVisibWave heightAir tempDewpointWater temp
2015-Jan-30 04:23N 46°15' W 123°60'6 7.3
2015-Jan-30 03:33N 46°12' W 123°52'3 0.7
2015-Jan-29 23:19N 46°12' W 123°48'2 3.0
2015-Jan-29 22:32N 46°11' W 123°51'0 0.0
2015-Jan-29 21:32N 46°11' W 123°51'2 2.4
2015-Jan-29 20:32N 46°12' W 123°48'0 0.0
2015-Jan-29 19:32N 46°12' W 123°48'0 0.0
2015-Jan-29 18:29N 46°12' W 123°48'0 0.0
2015-Jan-29 17:32N 46°12' W 123°48'0 0.0
2015-Jan-29 16:32N 46°12' W 123°48'0 0.0
2015-Jan-29 15:32N 46°12' W 123°48'0 0.0
2015-Jan-29 14:32N 46°12' W 123°48'0 0.0
2015-Jan-29 13:32N 46°12' W 123°48'0 0.0
2015-Jan-29 12:32N 46°12' W 123°48'0 0.0
2015-Jan-29 11:32N 46°12' W 123°48'0 0.0
2015-Jan-29 10:32N 46°12' W 123°48'0 0.0
2015-Jan-29 09:29N 46°12' W 123°48'0 0.0
2015-Jan-29 08:32N 46°12' W 123°48'0 0.0
2015-Jan-29 07:32N 46°12' W 123°48'0 0.0
2015-Jan-29 06:32N 46°12' W 123°48'0 0.0
2015-Jan-29 05:32N 46°12' W 123°48'0 0.0
2015-Jan-29 04:29N 46°12' W 123°48'0 0.0
2015-Jan-29 03:32N 46°12' W 123°48'0 0.0
2015-Jan-29 02:32N 46°12' W 123°48'0 0.0
2015-Jan-29 01:29N 46°12' W 123°48'0 0.0
2015-Jan-29 00:32N 46°12' W 123°48'0 0.0
2015-Jan-28 23:32N 46°12' W 123°48'0 0.0
2015-Jan-28 22:32N 46°12' W 123°48'0 0.0
2015-Jan-28 21:32N 46°12' W 123°48'0 0.0
2015-Jan-28 20:32N 46°12' W 123°48'0 0.0
2015-Jan-28 19:32N 46°12' W 123°48'0 0.0
2015-Jan-28 18:32N 46°12' W 123°48'0 0.0
2015-Jan-28 17:32N 46°12' W 123°48'0 0.0
2015-Jan-28 16:32N 46°12' W 123°48'0 0.0
2015-Jan-28 15:32N 46°12' W 123°48'0 0.0
2015-Jan-28 14:32N 46°12' W 123°48'0 0.0
2015-Jan-28 13:32N 46°12' W 123°48'0 0.0
2015-Jan-28 12:32N 46°12' W 123°48'0 0.0
2015-Jan-28 11:32N 46°12' W 123°48'0 0.0
2015-Jan-28 10:32N 46°12' W 123°48'0 0.0
2015-Jan-28 09:32N 46°12' W 123°48'0 0.0
2015-Jan-28 08:32N 46°12' W 123°48'0 0.0
2015-Jan-28 07:32N 46°12' W 123°48'0 0.0
2015-Jan-28 06:32N 46°12' W 123°48'0 0.0
2015-Jan-28 05:32N 46°12' W 123°48'0 0.0
2015-Jan-28 04:32N 46°12' W 123°48'0 0.0
2015-Jan-28 03:32N 46°12' W 123°48'0 0.0
2015-Jan-28 02:32N 46°12' W 123°48'0 0.0
2015-Jan-28 01:32N 46°12' W 123°48'0 0.0
2015-Jan-28 00:32N 46°12' W 123°48'0 0.0
2015-Jan-27 23:33N 46°12' W 123°48'0 0.0
2015-Jan-27 22:32N 46°12' W 123°48'0 0.0
2015-Jan-27 21:32N 46°12' W 123°48'0 0.0
2015-Jan-27 20:32N 46°12' W 123°48'0 0.0
2015-Jan-27 19:32N 46°12' W 123°48'0 0.0
2015-Jan-27 18:32N 46°12' W 123°48'0 0.0
2015-Jan-27 17:33N 46°12' W 123°48'0 0.0
2015-Jan-27 16:33N 46°12' W 123°48'0 0.0
2015-Jan-27 15:33N 46°12' W 123°48'0 0.0
2015-Jan-27 14:33N 46°12' W 123°48'0 0.0
2015-Jan-27 13:33N 46°12' W 123°48'0 0.0
2015-Jan-27 12:33N 46°12' W 123°48'0 0.0
2015-Jan-27 11:33N 46°12' W 123°48'0 0.0
2015-Jan-27 10:33N 46°12' W 123°48'0 0.0
2015-Jan-27 09:33N 46°12' W 123°48'0 0.0
2015-Jan-27 08:30N 46°12' W 123°48'0 0.0
2015-Jan-27 07:33N 46°12' W 123°48'0 0.0
2015-Jan-27 06:33N 46°12' W 123°48'0 0.0
2015-Jan-27 05:33N 46°12' W 123°48'0 0.0
2015-Jan-27 04:33N 46°12' W 123°48'0 0.0
2015-Jan-27 03:33N 46°12' W 123°48'0 0.0
2015-Jan-27 02:33N 46°12' W 123°48'0 0.0
2015-Jan-27 01:33N 46°12' W 123°48'0 0.0
2015-Jan-27 00:33N 46°12' W 123°48'0 0.0
2015-Jan-26 23:27N 46°12' W 123°48'0 0.0
2015-Jan-26 22:24N 46°12' W 123°48'0 0.0
2015-Jan-26 21:27N 46°12' W 123°48'0 0.0
2015-Jan-26 20:30N 46°12' W 123°48'0 0.0
2015-Jan-26 19:33N 46°12' W 123°48'1 0.7
2015-Jan-26 18:33N 46°12' W 123°49'2 1.6
2015-Jan-26 17:31N 46°11' W 123°51'0 0.0
2015-Jan-26 16:31N 46°11' W 123°51'0 0.0
2015-Jan-26 15:31N 46°11' W 123°51'0 0.0
2015-Jan-26 14:31N 46°11' W 123°51'0 0.0
2015-Jan-26 13:31N 46°11' W 123°51'0 0.0
2015-Jan-26 12:31N 46°11' W 123°51'0 0.0
2015-Jan-26 11:31N 46°11' W 123°51'0 0.0
2015-Jan-26 10:31N 46°11' W 123°51'0 0.0
2015-Jan-26 09:31N 46°11' W 123°51'0 0.0
2015-Jan-26 08:31N 46°11' W 123°51'0 0.0
2015-Jan-26 07:31N 46°11' W 123°51'0 0.0
2015-Jan-26 06:31N 46°11' W 123°51'0 0.0
2015-Jan-26 05:31N 46°11' W 123°51'0 0.0
2015-Jan-26 04:31N 46°11' W 123°51'0 0.0
2015-Jan-26 03:31N 46°11' W 123°51'0 0.0
2015-Jan-26 02:31N 46°11' W 123°51'0 0.0
2015-Jan-26 01:31N 46°11' W 123°51'0 0.0
2015-Jan-26 00:31N 46°11' W 123°51'2 2.4
2015-Jan-25 23:33N 46°11' W 123°55'8 8.2
2015-Jan-25 22:33N 46°14' W 124°06'8 7.7
2015-Jan-25 21:32N 46°11' W 124°17'7 7.3
2015-Jan-25 20:33N 46°11' W 124°27'8 7.5
2015-Jan-25 19:28N 46°10' W 124°39'2 1.9
2015-Jan-25 18:32N 46°10' W 124°41'2 2.1
2015-Jan-25 17:30N 46°08' W 124°43'2 2.0
2015-Jan-25 16:33N 46°07' W 124°45'2 2.0
2015-Jan-25 15:32N 46°06' W 124°47'1 1.4
2015-Jan-25 14:33N 46°05' W 124°49'1 0.3
2015-Jan-25 12:33N 46°05' W 124°49'1 0.5
2015-Jan-25 11:28N 46°05' W 124°50'5 4.0
2015-Jan-25 10:14N 46°01' W 124°48'1 1.4
2015-Jan-25 09:32N 46°00' W 124°47'2 2.2
2015-Jan-25 08:29N 45°58' W 124°45'2 2.2
2015-Jan-25 07:31N 45°56' W 124°45'2 2.3
2015-Jan-25 06:33N 45°54' W 124°46'2 2.1
2015-Jan-25 05:29N 45°52' W 124°45'3 2.8
2015-Jan-25 04:26N 45°49' W 124°46'2 1.4
2015-Jan-25 03:11N 45°47' W 124°46'1 2.1
2015-Jan-25 02:33N 45°46' W 124°46'3 2.0
2015-Jan-25 01:06N 45°43' W 124°46'1 2.1
2015-Jan-25 00:30N 45°42' W 124°45'2 1.8
2015-Jan-24 23:26N 45°41' W 124°43'1 1.4
2015-Jan-24 22:24N 45°42' W 124°44'4 1.8
2015-Jan-24 20:09N 45°45' W 124°47'9 2.9
2015-Jan-24 17:06N 45°54' W 124°46'3 5.5
2015-Jan-24 16:33N 45°57' W 124°44'1 0.8
2015-Jan-24 15:33N 45°57' W 124°45'2 2.0
2015-Jan-24 14:33N 45°59' W 124°46'2 2.1
2015-Jan-24 13:33N 46°01' W 124°48'2 2.0
2015-Jan-24 12:30N 46°03' W 124°48'2 2.0
2015-Jan-24 11:23N 46°05' W 124°46'3 2.7
2015-Jan-24 10:10N 46°08' W 124°44'4 6.0
2015-Jan-24 09:33N 46°12' W 124°42'6 5.9
2015-Jan-24 08:33N 46°17' W 124°40'1 1.3
2015-Jan-24 07:33N 46°18' W 124°40'2 2.0
2015-Jan-24 06:33N 46°17' W 124°38'0 0.2
2015-Jan-24 05:33N 46°17' W 124°38'2 1.9
2015-Jan-24 04:32N 46°19' W 124°40'4 4.1
2015-Jan-24 03:33N 46°23' W 124°40'6 6.1
2015-Jan-24 02:33N 46°29' W 124°41'6 5.8
2015-Jan-24 01:31N 46°35' W 124°43'7 6.0
2015-Jan-24 00:20N 46°41' W 124°45'10 0.2
2015-Jan-21 23:21N 46°37' W 124°33'0 0.0
2015-Jan-21 23:20N 46°37' W 124°33'5 8.7
2015-Jan-21 22:46N 46°33' W 124°29'2 8.7
2015-Jan-21 22:32N 46°31' W 124°27'2 9.1
2015-Jan-21 22:20N 46°30' W 124°25'8 9.6
2015-Jan-21 21:33N 46°23' W 124°20'10 9.7
2015-Jan-21 20:32N 46°15' W 124°12'7 7.3
2015-Jan-21 19:32N 46°15' W 124°02'6 6.5
2015-Jan-21 18:33N 46°12' W 123°54'3 2.7
2015-Jan-21 17:33N 46°12' W 123°50'2 1.5
2015-Jan-21 16:32N 46°12' W 123°48'0 0.0
2015-Jan-21 15:32N 46°12' W 123°48'0 0.0
2015-Jan-21 14:32N 46°12' W 123°48'0 0.0
2015-Jan-21 13:32N 46°12' W 123°48'0 0.0
2015-Jan-21 12:32N 46°12' W 123°48'0 0.0
2015-Jan-21 11:32N 46°12' W 123°48'0 0.0
2015-Jan-21 10:32N 46°12' W 123°48'0 0.0
2015-Jan-21 09:32N 46°12' W 123°48'0 0.0
2015-Jan-21 08:32N 46°12' W 123°48'0 0.0
2015-Jan-21 07:32N 46°12' W 123°48'0 0.0
2015-Jan-21 06:32N 46°12' W 123°48'0 0.0
2015-Jan-21 05:32N 46°12' W 123°48'0 0.0
2015-Jan-21 04:29N 46°12' W 123°48'0 0.0
2015-Jan-21 03:32N 46°12' W 123°48'0 0.0
2015-Jan-21 02:32N 46°12' W 123°48'0 0.0
2015-Jan-21 01:32N 46°12' W 123°48'0 0.0
2015-Jan-21 00:32N 46°12' W 123°48'0 0.0
2015-Jan-20 23:32N 46°12' W 123°48'0 0.0
2015-Jan-20 22:32N 46°12' W 123°48'0 0.0
2015-Jan-20 21:32N 46°12' W 123°48'0 0.0
2015-Jan-20 20:32N 46°12' W 123°48'1 1.4
2015-Jan-20 19:34N 46°12' W 123°50'1 1.0
2015-Jan-20 18:31N 46°11' W 123°51'0 0.0
2015-Jan-20 17:31N 46°11' W 123°51'2 2.5
2015-Jan-20 16:33N 46°12' W 123°48'0 0.0
2015-Jan-20 15:33N 46°12' W 123°48'0 0.0
2015-Jan-20 14:33N 46°12' W 123°48'0 0.0
2015-Jan-20 13:30N 46°12' W 123°48'0 0.0
2015-Jan-20 12:33N 46°12' W 123°48'0 0.0
2015-Jan-20 11:33N 46°12' W 123°48'0 0.0
2015-Jan-20 10:33N 46°12' W 123°48'0 0.0
2015-Jan-20 09:33N 46°12' W 123°48'0 0.0
2015-Jan-20 08:33N 46°12' W 123°48'0 0.0
2015-Jan-20 07:33N 46°12' W 123°48'0 0.0
2015-Jan-20 06:33N 46°12' W 123°48'0 0.0
2015-Jan-20 05:30N 46°12' W 123°48'0 0.0
2015-Jan-20 04:24N 46°12' W 123°48'  
Track history (hours):
 
Tides and Currents Weather Stations Pressure Air Temp Water Temp Dewpoint Dewpoint Depression Visibility Wind Speed Wind Dir Waves Ship Positions

Ocean Beaut

Owner: John Moreland Fishing Inc., Astoria, OR. More information available from US FCC via Universal Licensing System.

Last reported at 2015-Jan-30 04:23 UTC. Time now 2015-Feb-02 01:45 UTC.
Position N 46°15' W 123°60'.

Length 20 m.

Type: Fishing. MMSI: 367187080.

Date/timePositionNaut miles runAvg speedWind from/ knotsBaromVisibWave heightAir tempDewpointWater temp
2015-Jan-30 04:23N 46°15' W 123°60'6 7.3
2015-Jan-30 03:33N 46°12' W 123°52'3 0.7
2015-Jan-29 23:19N 46°12' W 123°48'2 3.0
2015-Jan-29 22:32N 46°11' W 123°51'0 0.0
2015-Jan-29 21:32N 46°11' W 123°51'2 2.4
2015-Jan-29 20:32N 46°12' W 123°48'0 0.0
2015-Jan-29 19:32N 46°12' W 123°48'0 0.0
2015-Jan-29 18:29N 46°12' W 123°48'0 0.0
2015-Jan-29 17:32N 46°12' W 123°48'0 0.0
2015-Jan-29 16:32N 46°12' W 123°48'0 0.0
2015-Jan-29 15:32N 46°12' W 123°48'0 0.0
2015-Jan-29 14:32N 46°12' W 123°48'0 0.0
2015-Jan-29 13:32N 46°12' W 123°48'0 0.0
2015-Jan-29 12:32N 46°12' W 123°48'0 0.0
2015-Jan-29 11:32N 46°12' W 123°48'0 0.0
2015-Jan-29 10:32N 46°12' W 123°48'0 0.0
2015-Jan-29 09:29N 46°12' W 123°48'0 0.0
2015-Jan-29 08:32N 46°12' W 123°48'0 0.0
2015-Jan-29 07:32N 46°12' W 123°48'0 0.0
2015-Jan-29 06:32N 46°12' W 123°48'0 0.0
2015-Jan-29 05:32N 46°12' W 123°48'0 0.0
2015-Jan-29 04:29N 46°12' W 123°48'0 0.0
2015-Jan-29 03:32N 46°12' W 123°48'0 0.0
2015-Jan-29 02:32N 46°12' W 123°48'0 0.0
2015-Jan-29 01:29N 46°12' W 123°48'0 0.0
2015-Jan-29 00:32N 46°12' W 123°48'0 0.0
2015-Jan-28 23:32N 46°12' W 123°48'0 0.0
2015-Jan-28 22:32N 46°12' W 123°48'0 0.0
2015-Jan-28 21:32N 46°12' W 123°48'0 0.0
2015-Jan-28 20:32N 46°12' W 123°48'0 0.0
2015-Jan-28 19:32N 46°12' W 123°48'0 0.0
2015-Jan-28 18:32N 46°12' W 123°48'0 0.0
2015-Jan-28 17:32N 46°12' W 123°48'0 0.0
2015-Jan-28 16:32N 46°12' W 123°48'0 0.0
2015-Jan-28 15:32N 46°12' W 123°48'0 0.0
2015-Jan-28 14:32N 46°12' W 123°48'0 0.0
2015-Jan-28 13:32N 46°12' W 123°48'0 0.0
2015-Jan-28 12:32N 46°12' W 123°48'0 0.0
2015-Jan-28 11:32N 46°12' W 123°48'0 0.0
2015-Jan-28 10:32N 46°12' W 123°48'0 0.0
2015-Jan-28 09:32N 46°12' W 123°48'0 0.0
2015-Jan-28 08:32N 46°12' W 123°48'0 0.0
2015-Jan-28 07:32N 46°12' W 123°48'0 0.0
2015-Jan-28 06:32N 46°12' W 123°48'0 0.0
2015-Jan-28 05:32N 46°12' W 123°48'0 0.0
2015-Jan-28 04:32N 46°12' W 123°48'0 0.0
2015-Jan-28 03:32N 46°12' W 123°48'0 0.0
2015-Jan-28 02:32N 46°12' W 123°48'0 0.0
2015-Jan-28 01:32N 46°12' W 123°48'0 0.0
2015-Jan-28 00:32N 46°12' W 123°48'0 0.0
2015-Jan-27 23:33N 46°12' W 123°48'0 0.0
2015-Jan-27 22:32N 46°12' W 123°48'0 0.0
2015-Jan-27 21:32N 46°12' W 123°48'0 0.0
2015-Jan-27 20:32N 46°12' W 123°48'0 0.0
2015-Jan-27 19:32N 46°12' W 123°48'0 0.0
2015-Jan-27 18:32N 46°12' W 123°48'0 0.0
2015-Jan-27 17:33N 46°12' W 123°48'0 0.0
2015-Jan-27 16:33N 46°12' W 123°48'0 0.0
2015-Jan-27 15:33N 46°12' W 123°48'0 0.0
2015-Jan-27 14:33N 46°12' W 123°48'0 0.0
2015-Jan-27 13:33N 46°12' W 123°48'0 0.0
2015-Jan-27 12:33N 46°12' W 123°48'0 0.0
2015-Jan-27 11:33N 46°12' W 123°48'0 0.0
2015-Jan-27 10:33N 46°12' W 123°48'0 0.0
2015-Jan-27 09:33N 46°12' W 123°48'0 0.0
2015-Jan-27 08:30N 46°12' W 123°48'0 0.0
2015-Jan-27 07:33N 46°12' W 123°48'0 0.0
2015-Jan-27 06:33N 46°12' W 123°48'0 0.0
2015-Jan-27 05:33N 46°12' W 123°48'0 0.0
2015-Jan-27 04:33N 46°12' W 123°48'0 0.0
2015-Jan-27 03:33N 46°12' W 123°48'0 0.0
2015-Jan-27 02:33N 46°12' W 123°48'0 0.0
2015-Jan-27 01:33N 46°12' W 123°48'0 0.0
2015-Jan-27 00:33N 46°12' W 123°48'0 0.0
2015-Jan-26 23:27N 46°12' W 123°48'0 0.0
2015-Jan-26 22:24N 46°12' W 123°48'0 0.0
2015-Jan-26 21:27N 46°12' W 123°48'0 0.0
2015-Jan-26 20:30N 46°12' W 123°48'0 0.0
2015-Jan-26 19:33N 46°12' W 123°48'1 0.7
2015-Jan-26 18:33N 46°12' W 123°49'2 1.6
2015-Jan-26 17:31N 46°11' W 123°51'0 0.0
2015-Jan-26 16:31N 46°11' W 123°51'0 0.0
2015-Jan-26 15:31N 46°11' W 123°51'0 0.0
2015-Jan-26 14:31N 46°11' W 123°51'0 0.0
2015-Jan-26 13:31N 46°11' W 123°51'0 0.0
2015-Jan-26 12:31N 46°11' W 123°51'0 0.0
2015-Jan-26 11:31N 46°11' W 123°51'0 0.0
2015-Jan-26 10:31N 46°11' W 123°51'0 0.0
2015-Jan-26 09:31N 46°11' W 123°51'0 0.0
2015-Jan-26 08:31N 46°11' W 123°51'0 0.0
2015-Jan-26 07:31N 46°11' W 123°51'0 0.0
2015-Jan-26 06:31N 46°11' W 123°51'0 0.0
2015-Jan-26 05:31N 46°11' W 123°51'0 0.0
2015-Jan-26 04:31N 46°11' W 123°51'0 0.0
2015-Jan-26 03:31N 46°11' W 123°51'0 0.0
2015-Jan-26 02:31N 46°11' W 123°51'0 0.0
2015-Jan-26 01:31N 46°11' W 123°51'0 0.0
2015-Jan-26 00:31N 46°11' W 123°51'2 2.4
2015-Jan-25 23:33N 46°11' W 123°55'8 8.2
2015-Jan-25 22:33N 46°14' W 124°06'8 7.7
2015-Jan-25 21:32N 46°11' W 124°17'7 7.3
2015-Jan-25 20:33N 46°11' W 124°27'8 7.5
2015-Jan-25 19:28N 46°10' W 124°39'2 1.9
2015-Jan-25 18:32N 46°10' W 124°41'2 2.1
2015-Jan-25 17:30N 46°08' W 124°43'2 2.0
2015-Jan-25 16:33N 46°07' W 124°45'2 2.0
2015-Jan-25 15:32N 46°06' W 124°47'1 1.4
2015-Jan-25 14:33N 46°05' W 124°49'1 0.3
2015-Jan-25 12:33N 46°05' W 124°49'1 0.5
2015-Jan-25 11:28N 46°05' W 124°50'5 4.0
2015-Jan-25 10:14N 46°01' W 124°48'1 1.4
2015-Jan-25 09:32N 46°00' W 124°47'2 2.2
2015-Jan-25 08:29N 45°58' W 124°45'2 2.2
2015-Jan-25 07:31N 45°56' W 124°45'2 2.3
2015-Jan-25 06:33N 45°54' W 124°46'2 2.1
2015-Jan-25 05:29N 45°52' W 124°45'3 2.8
2015-Jan-25 04:26N 45°49' W 124°46'2 1.4
2015-Jan-25 03:11N 45°47' W 124°46'1 2.1
2015-Jan-25 02:33N 45°46' W 124°46'3 2.0
2015-Jan-25 01:06N 45°43' W 124°46'1 2.1
2015-Jan-25 00:30N 45°42' W 124°45'2 1.8
2015-Jan-24 23:26N 45°41' W 124°43'1 1.4
2015-Jan-24 22:24N 45°42' W 124°44'4 1.8
2015-Jan-24 20:09N 45°45' W 124°47'9 2.9
2015-Jan-24 17:06N 45°54' W 124°46'3 5.5
2015-Jan-24 16:33N 45°57' W 124°44'1 0.8
2015-Jan-24 15:33N 45°57' W 124°45'2 2.0
2015-Jan-24 14:33N 45°59' W 124°46'2 2.1
2015-Jan-24 13:33N 46°01' W 124°48'2 2.0
2015-Jan-24 12:30N 46°03' W 124°48'2 2.0
2015-Jan-24 11:23N 46°05' W 124°46'3 2.7
2015-Jan-24 10:10N 46°08' W 124°44'4 6.0
2015-Jan-24 09:33N 46°12' W 124°42'6 5.9
2015-Jan-24 08:33N 46°17' W 124°40'1 1.3
2015-Jan-24 07:33N 46°18' W 124°40'2 2.0
2015-Jan-24 06:33N 46°17' W 124°38'0 0.2
2015-Jan-24 05:33N 46°17' W 124°38'2 1.9
2015-Jan-24 04:32N 46°19' W 124°40'4 4.1
2015-Jan-24 03:33N 46°23' W 124°40'6 6.1
2015-Jan-24 02:33N 46°29' W 124°41'6 5.8
2015-Jan-24 01:31N 46°35' W 124°43'7 6.0
2015-Jan-24 00:20N 46°41' W 124°45'10 0.2
2015-Jan-21 23:21N 46°37' W 124°33'0 0.0
2015-Jan-21 23:20N 46°37' W 124°33'5 8.7
2015-Jan-21 22:46N 46°33' W 124°29'2 8.7
2015-Jan-21 22:32N 46°31' W 124°27'2 9.1
2015-Jan-21 22:20N 46°30' W 124°25'8 9.6
2015-Jan-21 21:33N 46°23' W 124°20'10 9.7
2015-Jan-21 20:32N 46°15' W 124°12'7 7.3
2015-Jan-21 19:32N 46°15' W 124°02'6 6.5
2015-Jan-21 18:33N 46°12' W 123°54'3 2.7
2015-Jan-21 17:33N 46°12' W 123°50'2 1.5
2015-Jan-21 16:32N 46°12' W 123°48'0 0.0
2015-Jan-21 15:32N 46°12' W 123°48'0 0.0
2015-Jan-21 14:32N 46°12' W 123°48'0 0.0
2015-Jan-21 13:32N 46°12' W 123°48'0 0.0
2015-Jan-21 12:32N 46°12' W 123°48'0 0.0
2015-Jan-21 11:32N 46°12' W 123°48'0 0.0
2015-Jan-21 10:32N 46°12' W 123°48'0 0.0
2015-Jan-21 09:32N 46°12' W 123°48'0 0.0
2015-Jan-21 08:32N 46°12' W 123°48'0 0.0
2015-Jan-21 07:32N 46°12' W 123°48'0 0.0
2015-Jan-21 06:32N 46°12' W 123°48'0 0.0
2015-Jan-21 05:32N 46°12' W 123°48'0 0.0
2015-Jan-21 04:29N 46°12' W 123°48'0 0.0
2015-Jan-21 03:32N 46°12' W 123°48'0 0.0
2015-Jan-21 02:32N 46°12' W 123°48'0 0.0
2015-Jan-21 01:32N 46°12' W 123°48'0 0.0
2015-Jan-21 00:32N 46°12' W 123°48'0 0.0
2015-Jan-20 23:32N 46°12' W 123°48'0 0.0
2015-Jan-20 22:32N 46°12' W 123°48'0 0.0
2015-Jan-20 21:32N 46°12' W 123°48'0 0.0
2015-Jan-20 20:32N 46°12' W 123°48'1 1.4
2015-Jan-20 19:34N 46°12' W 123°50'1 1.0
2015-Jan-20 18:31N 46°11' W 123°51'0 0.0
2015-Jan-20 17:31N 46°11' W 123°51'2 2.5
2015-Jan-20 16:33N 46°12' W 123°48'0 0.0
2015-Jan-20 15:33N 46°12' W 123°48'0 0.0
2015-Jan-20 14:33N 46°12' W 123°48'0 0.0
2015-Jan-20 13:30N 46°12' W 123°48'0 0.0
2015-Jan-20 12:33N 46°12' W 123°48'0 0.0
2015-Jan-20 11:33N 46°12' W 123°48'0 0.0
2015-Jan-20 10:33N 46°12' W 123°48'0 0.0
2015-Jan-20 09:33N 46°12' W 123°48'0 0.0
2015-Jan-20 08:33N 46°12' W 123°48'0 0.0
2015-Jan-20 07:33N 46°12' W 123°48'0 0.0
2015-Jan-20 06:33N 46°12' W 123°48'0 0.0
2015-Jan-20 05:30N 46°12' W 123°48'0 0.0
2015-Jan-20 04:24N 46°12' W 123°48'  

Dump ship's entire track history